Portada
METAR-TAF:

METAR-TAF

Aeroports :

Kangiqsualujjuaq, Quebec, Canadà

latitud: 58-43N, longitud: 065-59W, altitud: 60 m

Observació

L'informe es va fer fa 8 hores i 50 minuts, a les 19:00 UTC
Vent 16 kt del Nord-Oest amb ràfegues de 22 kt
Temperatura 0°C
Humitat 93%
Pressió 1000 hPa
Visibilitat: 4.0 km
Cel cobert a una alçada de 600 ft
neu

METAR: CYLU 051900Z 32016G22KT 2 1/2SM -SN OVC006 M00/M01 A2953 RMK SN3ST5 LAST STFD OBS/NEXT 061200 UTC SLP007

Hora: 23:50 (03:50 UTC)


TAF: manca

Observacions i pronòstics meteorològics de més de 4000 aeroports (METAR i TAF).

Les estacions disponibles són els punts grocs i vermells al mapa.

Posi el ratolí al punt desitjat per veure el nom de l'estació.

Feu clic per veure les observacions i els pronòstics meteorològics.

Per canviar el mapa: feu clic els botons verds amb una creu de color negre per apropar; al botó verd amb un guió per allunyar la imatge; o en les fletxes verdes per a mapes adjacents.


METAR-TAF: